createdAt,value
2018-05-01T00:01:37.968Z,71.70
2018-05-01T00:04:04.739Z,71.50
2018-05-01T00:06:30.994Z,71.60
2018-05-01T00:08:57.270Z,71.40
2018-05-01T00:11:23.521Z,71.20
2018-05-01T00:13:49.777Z,71.30
2018-05-01T00:16:16.007Z,71.90
2018-05-01T00:18:42.235Z,71.90
2018-05-01T00:21:08.496Z,71.60
2018-05-01T00:23:34.934Z,71.70
2018-05-01T00:26:01.590Z,72.60
2018-05-01T00:28:27.857Z,72.00
2018-05-01T00:30:54.439Z,72.10
2018-05-01T00:33:20.665Z,72.20
2018-05-01T00:35:46.924Z,71.90
2018-05-01T00:38:13.642Z,72.00
2018-05-01T00:40:40.153Z,71.80
2018-05-01T00:43:06.617Z,71.30
2018-05-01T00:45:33.671Z,71.60
2018-05-01T00:47:59.907Z,71.70
2018-05-01T00:50:26.142Z,71.70
2018-05-01T00:52:53.145Z,71.70
2018-05-01T00:55:19.413Z,71.70
2018-05-01T00:57:48.767Z,71.60
2018-05-01T01:00:15.291Z,72.10
2018-05-01T01:02:42.495Z,72.00
2018-05-01T01:05:08.785Z,72.20
2018-05-01T01:07:35.016Z,72.20
2018-05-01T01:10:01.862Z,72.00
2018-05-01T01:12:28.178Z,72.20
2018-05-01T01:14:54.433Z,71.80
2018-05-01T01:17:21.481Z,71.60
2018-05-01T01:19:48.629Z,71.50
2018-05-01T01:22:15.876Z,72.10
2018-05-01T01:24:42.835Z,72.10
2018-05-01T01:27:09.410Z,72.10
2018-05-01T01:29:35.721Z,71.80
2018-05-01T01:32:14.944Z,71.40
2018-05-01T01:34:41.957Z,71.30
2018-05-01T01:37:08.319Z,71.20
2018-05-01T01:39:35.294Z,71.50
2018-05-01T01:42:02.110Z,71.80
2018-05-01T01:44:28.197Z,71.80
2018-05-01T01:46:54.285Z,72.40
2018-05-01T01:49:20.514Z,71.40
2018-05-01T01:51:47.355Z,72.20
2018-05-01T01:54:13.405Z,71.50
2018-05-01T01:56:40.907Z,71.90
2018-05-01T01:59:07.777Z,71.90
2018-05-01T02:01:35.369Z,71.30
2018-05-01T02:04:01.773Z,71.10
2018-05-01T02:06:27.849Z,71.30
2018-05-01T02:08:53.887Z,71.60
2018-05-01T02:11:21.052Z,71.10
2018-05-01T02:13:47.114Z,71.20
2018-05-01T02:16:13.935Z,71.70
2018-05-01T02:18:40.024Z,71.70
2018-05-01T02:21:06.077Z,71.70
2018-05-01T02:23:32.141Z,71.70
2018-05-01T02:25:58.517Z,71.70
2018-05-01T02:28:24.594Z,72.30
2018-05-01T02:30:52.024Z,72.40
2018-05-01T02:33:18.087Z,72.30
2018-05-01T02:35:44.153Z,72.10
2018-05-01T02:38:10.233Z,72.10
2018-05-01T02:40:36.752Z,72.30
2018-05-01T02:43:02.841Z,72.40
2018-05-01T02:45:28.901Z,72.20
2018-05-01T02:47:54.965Z,72.70
2018-05-01T02:50:21.758Z,73.00
2018-05-01T02:52:47.823Z,72.90
2018-05-01T02:55:14.626Z,73.20
2018-05-01T02:57:40.727Z,73.20
2018-05-01T03:00:06.773Z,73.60
2018-05-01T03:02:32.838Z,73.20
2018-05-01T03:04:58.897Z,73.10
2018-05-01T03:07:24.986Z,72.80
2018-05-01T03:09:51.163Z,72.90
2018-05-01T03:12:17.129Z,72.80
2018-05-01T03:14:43.238Z,72.50
2018-05-01T03:17:09.354Z,73.50
2018-05-01T03:19:35.412Z,73.20
2018-05-01T03:22:01.490Z,73.60
2018-05-01T03:24:27.546Z,73.10
2018-05-01T03:26:53.606Z,73.00
2018-05-01T03:29:19.749Z,73.20
2018-05-01T03:31:45.795Z,73.50
2018-05-01T03:34:11.883Z,74.20
2018-05-01T03:36:38.905Z,73.40
2018-05-01T03:39:05.048Z,73.40
2018-05-01T03:41:31.066Z,73.50
2018-05-01T03:43:58.011Z,73.20
2018-05-01T03:46:24.047Z,73.30
2018-05-01T03:48:50.178Z,73.50
2018-05-01T03:51:16.221Z,73.70
2018-05-01T03:53:42.365Z,73.20
2018-05-01T03:56:08.526Z,73.00
2018-05-01T03:58:34.590Z,72.80
2018-05-01T04:01:00.635Z,72.30
2018-05-01T04:03:26.906Z,72.60
2018-05-01T04:05:52.967Z,72.50
2018-05-01T04:08:20.419Z,72.70
2018-05-01T04:10:47.434Z,72.70
2018-05-01T04:13:13.678Z,72.20
2018-05-01T04:15:39.721Z,72.70
2018-05-01T04:18:05.798Z,72.50
2018-05-01T04:20:32.318Z,72.20
2018-05-01T04:22:58.389Z,72.10
2018-05-01T04:25:24.449Z,71.50
2018-05-01T04:27:50.733Z,71.50
2018-05-01T04:30:16.777Z,71.40
2018-05-01T04:32:42.887Z,71.70
2018-05-01T04:35:08.937Z,71.10
2018-05-01T04:37:35.003Z,71.10
2018-05-01T04:40:02.914Z,71.40
2018-05-01T04:42:29.304Z,71.40
2018-05-01T04:44:55.371Z,71.20
2018-05-01T04:47:21.462Z,71.20
2018-05-01T04:49:47.566Z,70.90
2018-05-01T04:52:13.752Z,70.80
2018-05-01T04:54:40.930Z,70.30
2018-05-01T04:57:07.549Z,71.40
2018-05-01T04:59:33.642Z,70.70
2018-05-01T05:02:00.256Z,70.40
2018-05-01T05:04:26.325Z,70.50
2018-05-01T05:06:52.375Z,70.60
2018-05-01T05:09:18.509Z,70.80
2018-05-01T05:11:44.565Z,70.70
2018-05-01T05:14:10.905Z,71.40
2018-05-01T05:16:37.062Z,71.20
2018-05-01T05:19:03.176Z,70.00
2018-05-01T05:21:29.217Z,70.30
2018-05-01T05:23:55.297Z,70.40
2018-05-01T05:26:21.352Z,70.70
2018-05-01T05:28:47.453Z,69.70
2018-05-01T05:31:13.597Z,69.80
2018-05-01T05:33:39.735Z,70.00
2018-05-01T05:36:05.809Z,69.90
2018-05-01T05:38:31.897Z,69.20
2018-05-01T05:40:57.945Z,68.40
2018-05-01T05:43:24.062Z,68.30
2018-05-01T05:45:50.157Z,67.40
2018-05-01T05:48:16.417Z,68.40
2018-05-01T05:50:42.833Z,67.90
2018-05-01T05:53:09.305Z,67.60
2018-05-01T05:55:35.748Z,68.10
2018-05-01T05:58:01.822Z,67.50
2018-05-01T06:00:27.897Z,67.60
2018-05-01T06:02:53.969Z,66.70
2018-05-01T06:05:20.050Z,67.10
2018-05-01T06:07:46.137Z,67.40
2018-05-01T06:10:12.222Z,66.20
2018-05-01T06:12:38.287Z,67.10
2018-05-01T06:15:04.369Z,67.10
2018-05-01T06:17:30.410Z,67.30
2018-05-01T06:19:56.485Z,66.70
2018-05-01T06:22:22.928Z,66.50
2018-05-01T06:24:49.038Z,66.10
2018-05-01T06:27:15.092Z,66.90
2018-05-01T06:29:41.185Z,66.40
2018-05-01T06:32:07.997Z,65.80
2018-05-01T06:34:34.465Z,66.30
2018-05-01T06:37:00.522Z,65.90
2018-05-01T06:39:26.597Z,65.10
2018-05-01T06:41:52.654Z,66.10
2018-05-01T06:44:19.732Z,65.10
2018-05-01T06:46:46.398Z,64.80
2018-05-01T06:49:12.475Z,63.70
2018-05-01T06:51:38.542Z,63.60
2018-05-01T06:54:04.619Z,63.30
2018-05-01T06:56:30.692Z,64.00
2018-05-01T06:58:57.412Z,64.70
2018-05-01T07:01:24.698Z,64.60
2018-05-01T07:03:51.289Z,64.60
2018-05-01T07:06:17.477Z,62.90
2018-05-01T07:08:43.525Z,62.90
2018-05-01T07:11:09.609Z,63.70
2018-05-01T07:13:35.685Z,63.00
2018-05-01T07:16:01.766Z,62.80
2018-05-01T07:18:27.829Z,62.20
2018-05-01T07:20:53.909Z,62.20
2018-05-01T07:23:20.258Z,62.00
2018-05-01T07:25:46.571Z,61.60
2018-05-01T07:28:14.001Z,61.60
2018-05-01T07:30:40.853Z,63.40
2018-05-01T07:33:06.885Z,63.40
2018-05-01T07:35:33.029Z,62.90
2018-05-01T07:37:59.794Z,61.30
2018-05-01T07:40:26.297Z,61.20
2018-05-01T07:42:53.111Z,62.40
2018-05-01T07:45:19.445Z,62.40
2018-05-01T07:47:45.497Z,61.50
2018-05-01T07:50:12.315Z,60.50
2018-05-01T07:52:38.361Z,60.40
2018-05-01T07:55:04.427Z,60.60
2018-05-01T07:57:31.040Z,60.40
2018-05-01T07:59:57.360Z,59.90
2018-05-01T08:02:23.411Z,60.50
2018-05-01T08:04:50.349Z,59.40
2018-05-01T08:07:16.533Z,58.00
2018-05-01T08:09:42.606Z,58.60
2018-05-01T08:12:08.711Z,59.00
2018-05-01T08:14:34.737Z,59.00
2018-05-01T08:17:01.041Z,57.20
2018-05-01T08:19:27.117Z,58.70
2018-05-01T08:21:53.950Z,56.80
2018-05-01T08:24:20.068Z,56.70
2018-05-01T08:26:46.736Z,54.80
2018-05-01T08:29:12.782Z,55.80
2018-05-01T08:31:39.153Z,54.80
2018-05-01T08:34:05.198Z,54.70
2018-05-01T08:36:31.302Z,55.10
2018-05-01T08:38:57.386Z,55.40
2018-05-01T08:41:23.486Z,55.40
2018-05-01T08:43:50.350Z,55.20
2018-05-01T08:46:17.161Z,54.70
2018-05-01T08:48:43.218Z,54.60
2018-05-01T08:51:09.281Z,55.50
2018-05-01T08:53:35.331Z,54.60
2018-05-01T08:56:01.607Z,54.50
2018-05-01T08:58:27.929Z,53.70
2018-05-01T09:00:54.563Z,54.20
2018-05-01T09:03:20.969Z,53.80
2018-05-01T09:05:47.363Z,53.90
2018-05-01T09:08:13.433Z,53.50
2018-05-01T09:10:39.503Z,54.40
2018-05-01T09:13:05.631Z,52.40
2018-05-01T09:15:31.722Z,52.20
2018-05-01T09:17:58.519Z,52.60
2018-05-01T09:20:25.333Z,52.20
2018-05-01T09:22:52.793Z,52.10
2018-05-01T09:25:18.905Z,51.90
2018-05-01T09:27:44.977Z,51.30
2018-05-01T09:30:11.076Z,52.10
2018-05-01T09:32:37.162Z,51.80
2018-05-01T09:35:03.203Z,51.90
2018-05-01T09:37:29.361Z,52.40
2018-05-01T09:39:55.445Z,52.70
2018-05-01T09:42:21.550Z,52.90
2018-05-01T09:44:47.607Z,52.50
2018-05-01T09:47:14.233Z,52.70
2018-05-01T09:49:40.297Z,52.20
2018-05-01T09:52:06.373Z,52.70
2018-05-01T09:54:32.636Z,52.70
2018-05-01T09:56:58.945Z,52.50
2018-05-01T09:59:25.889Z,50.80
2018-05-01T10:01:52.042Z,51.30
2018-05-01T10:04:18.745Z,51.90
2018-05-01T10:06:45.008Z,51.80
2018-05-01T10:09:11.286Z,51.60
2018-05-01T10:11:37.585Z,50.70
2018-05-01T10:14:03.824Z,52.30
2018-05-01T10:16:30.094Z,51.90
2018-05-01T10:18:56.577Z,50.40
2018-05-01T10:21:23.493Z,51.30
2018-05-01T10:23:49.738Z,49.70
2018-05-01T10:26:16.478Z,49.90
2018-05-01T10:28:42.909Z,48.20
2018-05-01T10:31:09.666Z,49.50
2018-05-01T10:33:35.957Z,49.40
2018-05-01T10:36:02.540Z,49.40
2018-05-01T10:38:28.833Z,51.00
2018-05-01T10:40:55.526Z,51.20
2018-05-01T10:43:21.798Z,52.00
2018-05-01T10:45:48.064Z,51.30
2018-05-01T10:48:14.880Z,51.20
2018-05-01T10:50:41.129Z,49.30
2018-05-01T10:53:07.726Z,49.20
2018-05-01T10:55:35.874Z,50.60
2018-05-01T10:58:06.644Z,50.10
2018-05-01T11:00:32.969Z,50.20
2018-05-01T11:02:59.970Z,50.00
2018-05-01T11:05:26.262Z,50.00
2018-05-01T11:07:52.990Z,50.80
2018-05-01T11:10:19.234Z,50.20
2018-05-01T11:12:45.801Z,49.50
2018-05-01T11:15:12.057Z,47.90
2018-05-01T11:17:39.265Z,46.00
2018-05-01T11:20:05.609Z,46.60
2018-05-01T11:22:32.243Z,47.40
2018-05-01T11:24:58.496Z,47.50
2018-05-01T11:27:24.758Z,47.70
2018-05-01T11:29:51.047Z,46.90
2018-05-01T11:32:17.820Z,43.80
2018-05-01T11:34:44.597Z,43.90
2018-05-01T11:37:10.862Z,44.40
2018-05-01T11:39:37.794Z,42.80
2018-05-01T11:42:04.057Z,45.70
2018-05-01T11:44:30.782Z,44.70
2018-05-01T11:46:57.054Z,45.40
2018-05-01T11:49:23.329Z,44.40
2018-05-01T11:51:49.841Z,45.00
2018-05-01T11:54:16.109Z,43.90
2018-05-01T11:56:42.590Z,44.20
2018-05-01T11:59:09.033Z,44.20
2018-05-01T12:01:35.281Z,42.20
2018-05-01T12:04:01.565Z,42.60
2018-05-01T12:06:27.861Z,41.80
2018-05-01T12:08:54.195Z,42.20
2018-05-01T12:11:20.445Z,42.10
2018-05-01T12:13:47.502Z,42.00
2018-05-01T12:16:14.789Z,41.90
2018-05-01T12:18:41.086Z,42.40
2018-05-01T12:21:07.406Z,42.70
2018-05-01T12:23:33.994Z,43.20
2018-05-01T12:26:00.356Z,42.30
2018-05-01T12:28:26.869Z,43.60
2018-05-01T12:30:53.109Z,43.20
2018-05-01T12:33:19.362Z,44.10
2018-05-01T12:35:45.633Z,45.60
2018-05-01T12:38:11.913Z,44.10
2018-05-01T12:40:38.502Z,44.00
2018-05-01T12:43:04.910Z,44.20
2018-05-01T12:45:31.462Z,43.40
2018-05-01T12:47:57.727Z,41.70
2018-05-01T12:50:23.989Z,43.00
2018-05-01T12:52:50.762Z,43.90
2018-05-01T12:55:17.042Z,45.50
2018-05-01T12:57:43.854Z,44.20
2018-05-01T13:00:10.138Z,40.90
2018-05-01T13:02:36.382Z,40.60
2018-05-01T13:05:02.724Z,39.90
2018-05-01T13:07:28.937Z,40.90
2018-05-01T13:09:55.193Z,41.70
2018-05-01T13:12:21.665Z,41.50
2018-05-01T13:14:47.969Z,40.70
2018-05-01T13:17:14.473Z,40.40
2018-05-01T13:19:40.747Z,40.60
2018-05-01T13:22:07.017Z,39.20
2018-05-01T13:24:33.398Z,39.70
2018-05-01T13:26:59.673Z,38.80
2018-05-01T13:29:26.003Z,37.10
2018-05-01T13:31:53.014Z,38.30
2018-05-01T13:34:19.354Z,38.20
2018-05-01T13:36:45.597Z,40.10
2018-05-01T13:39:12.577Z,41.40
2018-05-01T13:41:38.825Z,41.50
2018-05-01T13:44:05.330Z,39.60
2018-05-01T13:46:31.570Z,38.10
2018-05-01T13:48:59.290Z,35.40
2018-05-01T13:51:25.540Z,35.30
2018-05-01T13:53:51.817Z,31.40
2018-05-01T13:56:18.387Z,29.30
2018-05-01T13:58:44.655Z,31.00
2018-05-01T14:01:11.617Z,34.60
2018-05-01T14:03:37.922Z,36.80
2018-05-01T14:09:35.901Z,33.10
2018-05-01T14:12:05.221Z,35.20
2018-05-01T14:14:34.070Z,36.90
2018-05-01T14:17:02.409Z,37.40
2018-05-01T14:19:31.983Z,39.10
2018-05-01T14:22:00.930Z,40.20
2018-05-01T14:24:30.493Z,40.40
2018-05-01T14:29:31.397Z,42.40
2018-05-01T14:31:59.773Z,41.40
2018-05-01T14:34:28.260Z,39.10
2018-05-01T14:36:56.619Z,38.40
2018-05-01T14:39:25.175Z,39.50
2018-05-01T14:41:53.542Z,39.80
2018-05-01T14:44:22.925Z,41.90
2018-05-01T14:46:52.401Z,41.90
2018-05-01T14:49:20.865Z,42.40
2018-05-01T14:51:49.930Z,42.30
2018-05-01T14:54:18.309Z,41.20
2018-05-01T14:56:46.621Z,41.60
2018-05-01T14:59:15.418Z,39.40
2018-05-01T15:01:44.484Z,37.80
2018-05-01T15:04:12.809Z,38.70
2018-05-01T15:06:42.286Z,37.30
2018-05-01T15:09:11.386Z,37.40
2018-05-01T15:14:09.982Z,37.90
2018-05-01T15:16:38.821Z,36.90
2018-05-01T15:19:07.909Z,36.40
2018-05-01T15:21:36.249Z,36.60
2018-05-01T15:24:05.349Z,32.80
2018-05-01T15:31:31.382Z,36.30
2018-05-01T15:34:00.235Z,39.60
2018-05-01T15:36:29.338Z,39.50
2018-05-01T15:41:27.682Z,39.40
2018-05-01T15:43:56.746Z,39.10
2018-05-01T15:46:25.805Z,40.30
2018-05-01T15:51:23.938Z,38.70
2018-05-01T15:53:52.226Z,39.70
2018-05-01T15:56:21.774Z,40.00
2018-05-01T16:03:48.845Z,40.30
2018-05-01T16:06:17.201Z,39.80
2018-05-01T16:08:46.199Z,40.00
2018-05-01T16:11:14.501Z,41.20
2018-05-01T16:16:11.635Z,41.20
2018-05-01T16:18:41.703Z,41.70
2018-05-01T16:21:10.194Z,41.90
2018-05-01T16:23:38.444Z,40.30
2018-05-01T16:26:06.756Z,41.80
2018-05-01T16:28:35.029Z,41.70
2018-05-01T16:31:03.305Z,43.00
2018-05-01T16:33:31.577Z,42.00
2018-05-01T16:35:59.872Z,42.60
2018-05-01T16:38:28.306Z,42.20
2018-05-01T16:40:56.673Z,41.40
2018-05-01T16:43:24.926Z,40.30
2018-05-01T16:45:53.197Z,38.70
2018-05-01T16:48:21.594Z,38.30
2018-05-01T16:50:50.338Z,38.90
2018-05-01T16:53:19.214Z,39.40
2018-05-01T16:58:16.945Z,42.00
2018-05-01T17:03:16.125Z,43.10
2018-05-01T17:05:44.438Z,44.40
2018-05-01T17:08:12.750Z,45.20
2018-05-01T17:10:41.101Z,45.90
2018-05-01T17:13:10.157Z,46.20
2018-05-01T17:15:38.733Z,44.90
2018-05-01T17:18:07.566Z,43.00
2018-05-01T17:20:37.388Z,42.60
2018-05-01T17:23:05.731Z,43.00
2018-05-01T17:25:34.141Z,44.00
2018-05-01T17:28:02.440Z,43.80
2018-05-01T17:30:30.817Z,45.50
2018-05-01T17:32:59.110Z,46.40
2018-05-01T17:35:27.518Z,46.70
2018-05-01T17:37:55.836Z,46.10
2018-05-01T17:40:24.275Z,46.40
2018-05-01T17:42:52.557Z,47.90
2018-05-01T17:45:20.842Z,48.10
2018-05-01T17:47:49.133Z,50.10
2018-05-01T17:50:17.405Z,50.00
2018-05-01T17:55:15.010Z,47.80
2018-05-01T17:57:43.394Z,49.40
2018-05-01T18:00:11.894Z,51.40
2018-05-01T18:02:40.201Z,50.50
2018-05-01T18:05:08.786Z,52.20
2018-05-01T18:07:37.065Z,51.30
2018-05-01T18:10:05.326Z,51.50
2018-05-01T18:12:33.939Z,51.20
2018-05-01T18:15:02.189Z,52.70
2018-05-01T18:17:30.469Z,52.50
2018-05-01T18:19:58.754Z,51.10
2018-05-01T18:22:27.057Z,52.80
2018-05-01T18:24:55.357Z,52.40
2018-05-01T18:27:23.641Z,52.60
2018-05-01T18:29:51.894Z,53.40
2018-05-01T18:32:20.178Z,54.50
2018-05-01T18:34:48.522Z,53.20
2018-05-01T18:37:16.901Z,53.50
2018-05-01T18:39:45.525Z,53.50
2018-05-01T18:42:13.926Z,54.40
2018-05-01T18:44:42.186Z,56.20
2018-05-01T18:47:10.471Z,55.00
2018-05-01T18:49:38.730Z,56.30
2018-05-01T18:52:07.893Z,57.70
2018-05-01T18:54:36.469Z,58.60
2018-05-01T18:59:34.341Z,60.00
2018-05-01T19:02:02.633Z,56.70
2018-05-01T19:04:31.237Z,56.90
2018-05-01T19:06:59.501Z,56.10
2018-05-01T19:09:27.774Z,58.10
2018-05-01T19:11:56.446Z,59.40
2018-05-01T19:14:24.733Z,57.00
2018-05-01T19:16:53.217Z,57.80
2018-05-01T19:19:21.518Z,58.30
2018-05-01T19:21:49.861Z,59.80
2018-05-01T19:24:20.644Z,58.60
2018-05-01T19:26:49.303Z,60.00
2018-05-01T19:29:17.653Z,60.20
2018-05-01T19:31:46.597Z,60.40
2018-05-01T19:34:14.896Z,60.40
2018-05-01T19:36:43.153Z,61.00
2018-05-01T19:39:11.442Z,60.60
2018-05-01T19:41:39.739Z,60.40
2018-05-01T19:44:08.021Z,60.90
2018-05-01T19:46:38.447Z,60.10
2018-05-01T19:49:06.823Z,61.40
2018-05-01T19:51:39.608Z,62.30
2018-05-01T19:54:09.566Z,62.10
2018-05-01T19:56:38.016Z,62.90
2018-05-01T19:59:06.335Z,63.20
2018-05-01T20:01:34.824Z,64.30
2018-05-01T20:04:03.201Z,64.70
2018-05-01T20:06:32.087Z,65.80
2018-05-01T20:09:00.666Z,65.40
2018-05-01T20:11:28.945Z,66.20
2018-05-01T20:13:57.239Z,66.40
2018-05-01T20:16:25.778Z,67.20
2018-05-01T20:18:54.057Z,66.90
2018-05-01T20:21:22.441Z,67.70
2018-05-01T20:23:50.745Z,67.00
2018-05-01T20:26:19.082Z,66.90
2018-05-01T20:28:47.353Z,68.00
2018-05-01T20:31:16.610Z,68.10
2018-05-01T20:33:45.644Z,67.70
2018-05-01T20:36:14.674Z,67.10
2018-05-01T20:38:45.496Z,68.00
2018-05-01T20:41:13.783Z,67.80
2018-05-01T20:43:42.105Z,67.10
2018-05-01T20:46:10.449Z,67.80
2018-05-01T20:48:38.846Z,68.20
2018-05-01T20:51:07.182Z,68.60
2018-05-01T20:56:05.643Z,69.40
2018-05-01T20:58:34.701Z,70.10
2018-05-01T21:01:02.988Z,70.50
2018-05-01T21:03:31.261Z,70.60
2018-05-01T21:05:59.577Z,70.70
2018-05-01T21:08:27.854Z,70.80
2018-05-01T21:13:26.004Z,71.20
2018-05-01T21:15:55.123Z,71.50
2018-05-01T21:18:24.157Z,71.70
2018-05-01T21:20:53.063Z,71.80
2018-05-01T21:23:21.362Z,72.00
2018-05-01T21:28:18.557Z,72.50
2018-05-01T21:30:46.854Z,72.40
2018-05-01T21:33:15.138Z,72.50
2018-05-01T21:35:43.436Z,72.20
2018-05-01T21:38:12.486Z,72.20
2018-05-01T21:40:40.774Z,72.20
2018-05-01T21:43:09.061Z,72.60
2018-05-01T21:45:37.549Z,72.30
2018-05-01T21:48:05.840Z,72.80
2018-05-01T21:50:34.126Z,72.60
2018-05-01T21:55:31.274Z,73.10
2018-05-01T21:58:00.222Z,73.60
2018-05-01T22:00:29.821Z,73.70
2018-05-01T22:05:27.593Z,73.90
2018-05-01T22:07:56.014Z,73.70
2018-05-01T22:10:24.287Z,73.80
2018-05-01T22:12:52.582Z,73.90
2018-05-01T22:15:21.046Z,74.20
2018-05-01T22:17:49.327Z,74.10
2018-05-01T22:20:17.741Z,74.10
2018-05-01T22:22:46.493Z,74.10
2018-05-01T22:25:14.771Z,74.50
2018-05-01T22:27:44.583Z,74.50
2018-05-01T22:30:12.857Z,74.60
2018-05-01T22:32:41.430Z,75.00
2018-05-01T22:35:09.710Z,75.20
2018-05-01T22:37:38.175Z,74.90
2018-05-01T22:40:06.440Z,75.00
2018-05-01T22:42:34.737Z,75.50
2018-05-01T22:45:03.054Z,76.10
2018-05-01T22:47:31.378Z,75.50
2018-05-01T22:49:59.822Z,75.50
2018-05-01T22:52:28.133Z,75.90
2018-05-01T22:54:56.514Z,76.10
2018-05-01T22:57:24.888Z,75.90
2018-05-01T22:59:53.178Z,76.00
2018-05-01T23:02:21.465Z,75.60
2018-05-01T23:04:49.928Z,75.80
2018-05-01T23:07:18.206Z,76.20
2018-05-01T23:09:46.508Z,76.30
2018-05-01T23:12:14.969Z,76.60
2018-05-01T23:14:43.233Z,77.20
2018-05-01T23:17:11.554Z,77.20
2018-05-01T23:19:39.905Z,77.40
2018-05-01T23:22:09.283Z,76.90
2018-05-01T23:24:37.553Z,77.10
2018-05-01T23:27:05.869Z,77.10
2018-05-01T23:29:34.186Z,76.80
2018-05-01T23:32:02.513Z,77.10
2018-05-01T23:34:30.858Z,76.80
2018-05-01T23:36:59.225Z,77.00
2018-05-01T23:39:28.153Z,77.10
2018-05-01T23:41:56.481Z,77.10
2018-05-01T23:44:24.873Z,77.20
2018-05-01T23:46:53.234Z,77.00
2018-05-01T23:49:21.586Z,77.40
2018-05-01T23:51:50.923Z,77.00
2018-05-01T23:54:19.233Z,77.40
2018-05-01T23:56:47.509Z,77.90
2018-05-01T23:59:16.971Z,78.10
